sensor_id;sensor_type;location;lat;lon;timestamp;temperature;humidity
13205;DHT22;6667;52.634;9.226;2022-09-09T04:28:55;13.60;99.90
13205;DHT22;6667;52.634;9.226;2022-09-09T04:31:23;13.60;99.90
13205;DHT22;6667;52.634;9.226;2022-09-09T04:33:49;13.50;99.90
13205;DHT22;6667;52.634;9.226;2022-09-09T04:36:17;13.60;99.90
13205;DHT22;6667;52.634;9.226;2022-09-09T04:38:44;13.50;99.90
13205;DHT22;6667;52.634;9.226;2022-09-09T04:41:11;13.60;99.90
13205;DHT22;6667;52.634;9.226;2022-09-09T04:43:38;13.60;99.90
13205;DHT22;6667;52.634;9.226;2022-09-09T04:46:06;13.60;99.90
13205;DHT22;6667;52.634;9.226;2022-09-09T04:48:33;13.60;99.90
13205;DHT22;6667;52.634;9.226;2022-09-09T04:51:01;13.60;99.90
13205;DHT22;6667;52.634;9.226;2022-09-09T04:53:29;13.60;99.90
13205;DHT22;6667;52.634;9.226;2022-09-09T04:56:02;13.60;99.90
13205;DHT22;6667;52.634;9.226;2022-09-09T04:58:29;13.60;99.90
13205;DHT22;6667;52.634;9.226;2022-09-09T05:01:07;13.60;99.90
13205;DHT22;6667;52.634;9.226;2022-09-09T05:03:34;13.60;99.90
13205;DHT22;6667;52.634;9.226;2022-09-09T05:06:06;13.60;99.90
13205;DHT22;6667;52.634;9.226;2022-09-09T05:08:33;13.60;99.90
13205;DHT22;6667;52.634;9.226;2022-09-09T05:11:00;13.70;99.90
13205;DHT22;6667;52.634;9.226;2022-09-09T05:13:27;13.70;99.90
13205;DHT22;6667;52.634;9.226;2022-09-09T05:15:54;13.60;99.90
13205;DHT22;6667;52.634;9.226;2022-09-09T05:18:22;13.70;99.90
13205;DHT22;6667;52.634;9.226;2022-09-09T05:20:49;13.70;99.90
13205;DHT22;6667;52.634;9.226;2022-09-09T05:23:16;13.70;99.90
13205;DHT22;6667;52.634;9.226;2022-09-09T05:25:43;13.70;99.90
13205;DHT22;6667;52.634;9.226;2022-09-09T05:28:12;13.70;99.90
13205;DHT22;6667;52.634;9.226;2022-09-09T05:30:38;13.80;99.90
13205;DHT22;6667;52.634;9.226;2022-09-09T05:33:05;13.90;99.90
13205;DHT22;6667;52.634;9.226;2022-09-09T05:35:34;13.90;99.90
13205;DHT22;6667;52.634;9.226;2022-09-09T05:38:00;14.00;99.90
13205;DHT22;6667;52.634;9.226;2022-09-09T05:40:27;14.00;99.90
13205;DHT22;6667;52.634;9.226;2022-09-09T05:42:53;14.00;99.90
13205;DHT22;6667;52.634;9.226;2022-09-09T05:45:20;14.00;99.90
13205;DHT22;6667;52.634;9.226;2022-09-09T05:47:51;14.00;99.90
13205;DHT22;6667;52.634;9.226;2022-09-09T05:50:18;14.00;99.90
13205;DHT22;6667;52.634;9.226;2022-09-09T05:52:46;14.10;99.90
13205;DHT22;6667;52.634;9.226;2022-09-09T05:55:15;14.20;99.90
13205;DHT22;6667;52.634;9.226;2022-09-09T05:57:41;14.20;99.90
13205;DHT22;6667;52.634;9.226;2022-09-09T06:00:09;14.30;99.90
13205;DHT22;6667;52.634;9.226;2022-09-09T06:02:37;14.50;99.90
13205;DHT22;6667;52.634;9.226;2022-09-09T06:05:05;14.60;99.90
13205;DHT22;6667;52.634;9.226;2022-09-09T06:07:31;14.60;99.90
13205;DHT22;6667;52.634;9.226;2022-09-09T06:09:59;14.70;99.90
13205;DHT22;6667;52.634;9.226;2022-09-09T06:12:26;14.80;99.90
13205;DHT22;6667;52.634;9.226;2022-09-09T06:14:53;14.80;99.90
13205;DHT22;6667;52.634;9.226;2022-09-09T06:17:19;14.90;99.90
13205;DHT22;6667;52.634;9.226;2022-09-09T06:19:46;15.00;99.90
13205;DHT22;6667;52.634;9.226;2022-09-09T06:22:12;15.00;99.90
13205;DHT22;6667;52.634;9.226;2022-09-09T06:24:39;15.00;99.90
13205;DHT22;6667;52.634;9.226;2022-09-09T06:27:07;15.20;99.90
13205;DHT22;6667;52.634;9.226;2022-09-09T06:29:34;15.30;99.90
13205;DHT22;6667;52.634;9.226;2022-09-09T06:32:01;15.30;99.90
13205;DHT22;6667;52.634;9.226;2022-09-09T06:34:27;15.40;99.90
13205;DHT22;6667;52.634;9.226;2022-09-09T06:36:54;15.40;99.90
13205;DHT22;6667;52.634;9.226;2022-09-09T06:39:23;15.50;99.90
13205;DHT22;6667;52.634;9.226;2022-09-09T06:41:49;15.70;99.90
13205;DHT22;6667;52.634;9.226;2022-09-09T06:44:19;15.90;99.90
13205;DHT22;6667;52.634;9.226;2022-09-09T06:46:47;16.10;99.90
13205;DHT22;6667;52.634;9.226;2022-09-09T06:49:14;16.20;99.90
13205;DHT22;6667;52.634;9.226;2022-09-09T06:51:40;16.10;99.90
13205;DHT22;6667;52.634;9.226;2022-09-09T06:54:08;16.00;99.90
13205;DHT22;6667;52.634;9.226;2022-09-09T06:56:36;16.00;99.90
13205;DHT22;6667;52.634;9.226;2022-09-09T06:59:04;16.00;99.90
13205;DHT22;6667;52.634;9.226;2022-09-09T07:01:36;16.00;99.90
13205;DHT22;6667;52.634;9.226;2022-09-09T07:04:03;16.10;99.90
13205;DHT22;6667;52.634;9.226;2022-09-09T07:06:34;16.30;99.90
13205;DHT22;6667;52.634;9.226;2022-09-09T07:09:03;16.40;99.90
13205;DHT22;6667;52.634;9.226;2022-09-09T07:11:32;16.50;99.90
13205;DHT22;6667;52.634;9.226;2022-09-09T07:13:59;16.60;99.90
13205;DHT22;6667;52.634;9.226;2022-09-09T07:16:27;16.90;99.90
13205;DHT22;6667;52.634;9.226;2022-09-09T07:18:56;17.00;99.90
13205;DHT22;6667;52.634;9.226;2022-09-09T07:21:23;16.90;99.90
13205;DHT22;6667;52.634;9.226;2022-09-09T07:23:51;16.90;99.90
13205;DHT22;6667;52.634;9.226;2022-09-09T07:26:19;16.90;99.90
13205;DHT22;6667;52.634;9.226;2022-09-09T07:28:47;16.90;99.90
13205;DHT22;6667;52.634;9.226;2022-09-09T07:31:15;16.80;99.90
13205;DHT22;6667;52.634;9.226;2022-09-09T07:33:43;17.00;99.90
13205;DHT22;6667;52.634;9.226;2022-09-09T07:36:14;17.20;99.90
13205;DHT22;6667;52.634;9.226;2022-09-09T07:38:44;17.20;99.90
13205;DHT22;6667;52.634;9.226;2022-09-09T07:41:13;17.30;99.90
13205;DHT22;6667;52.634;9.226;2022-09-09T07:43:41;17.40;99.90
13205;DHT22;6667;52.634;9.226;2022-09-09T07:46:08;17.40;99.90
13205;DHT22;6667;52.634;9.226;2022-09-09T07:48:35;17.50;99.90
13205;DHT22;6667;52.634;9.226;2022-09-09T07:51:07;17.70;99.90
13205;DHT22;6667;52.634;9.226;2022-09-09T07:53:35;17.70;99.90
13205;DHT22;6667;52.634;9.226;2022-09-09T07:56:05;18.10;99.90
13205;DHT22;6667;52.634;9.226;2022-09-09T07:58:32;18.40;99.90
13205;DHT22;6667;52.634;9.226;2022-09-09T08:00:59;19.20;99.90
13205;DHT22;6667;52.634;9.226;2022-09-09T08:03:26;19.90;99.90
13205;DHT22;6667;52.634;9.226;2022-09-09T08:05:52;20.40;99.90
13205;DHT22;6667;52.634;9.226;2022-09-09T08:08:19;20.90;99.90
13205;DHT22;6667;52.634;9.226;2022-09-09T08:10:47;21.20;99.90
13205;DHT22;6667;52.634;9.226;2022-09-09T08:13:13;21.00;99.90
13205;DHT22;6667;52.634;9.226;2022-09-09T08:15:40;21.10;99.90
13205;DHT22;6667;52.634;9.226;2022-09-09T08:18:08;21.10;99.90
13205;DHT22;6667;52.634;9.226;2022-09-09T08:20:36;21.80;99.90
13205;DHT22;6667;52.634;9.226;2022-09-09T08:23:03;21.90;99.90
13205;DHT22;6667;52.634;9.226;2022-09-09T08:25:31;21.40;99.90
13205;DHT22;6667;52.634;9.226;2022-09-09T08:28:00;21.30;99.90
13205;DHT22;6667;52.634;9.226;2022-09-09T08:30:27;21.60;99.90
13205;DHT22;6667;52.634;9.226;2022-09-09T08:32:53;21.40;99.90
13205;DHT22;6667;52.634;9.226;2022-09-09T08:35:20;21.20;99.90
13205;DHT22;6667;52.634;9.226;2022-09-09T08:37:46;21.00;99.90
13205;DHT22;6667;52.634;9.226;2022-09-09T08:40:20;21.00;99.90
13205;DHT22;6667;52.634;9.226;2022-09-09T08:42:50;21.00;99.90
13205;DHT22;6667;52.634;9.226;2022-09-09T08:45:30;21.20;99.90
13205;DHT22;6667;52.634;9.226;2022-09-09T08:48:21;21.30;99.90
13205;DHT22;6667;52.634;9.226;2022-09-09T08:50:50;21.40;99.90
13205;DHT22;6667;52.634;9.226;2022-09-09T08:53:20;21.30;99.90
13205;DHT22;6667;52.634;9.226;2022-09-09T08:55:49;21.20;99.90
13205;DHT22;6667;52.634;9.226;2022-09-09T08:58:17;21.30;99.90
13205;DHT22;6667;52.634;9.226;2022-09-09T09:01:19;21.20;99.90
13205;DHT22;6667;52.634;9.226;2022-09-09T09:03:52;21.30;99.90
13205;DHT22;6667;52.634;9.226;2022-09-09T09:06:30;21.40;99.90
13205;DHT22;6667;52.634;9.226;2022-09-09T09:09:06;21.80;99.90
13205;DHT22;6667;52.634;9.226;2022-09-09T09:11:36;22.10;99.90
13205;DHT22;6667;52.634;9.226;2022-09-09T09:14:09;22.00;99.90
13205;DHT22;6667;52.634;9.226;2022-09-09T09:16:43;22.30;99.90
13205;DHT22;6667;52.634;9.226;2022-09-09T09:19:16;22.00;99.90
13205;DHT22;6667;52.634;9.226;2022-09-09T09:21:44;21.90;99.90
13205;DHT22;6667;52.634;9.226;2022-09-09T09:24:18;21.70;99.90
13205;DHT22;6667;52.634;9.226;2022-09-09T09:26:45;22.30;99.90
13205;DHT22;6667;52.634;9.226;2022-09-09T09:29:14;22.50;99.90
13205;DHT22;6667;52.634;9.226;2022-09-09T09:31:45;22.20;99.90
13205;DHT22;6667;52.634;9.226;2022-09-09T09:34:13;22.30;99.90
13205;DHT22;6667;52.634;9.226;2022-09-09T09:36:42;22.90;99.90
13205;DHT22;6667;52.634;9.226;2022-09-09T09:39:10;23.20;99.90
13205;DHT22;6667;52.634;9.226;2022-09-09T09:41:38;22.90;99.90
13205;DHT22;6667;52.634;9.226;2022-09-09T09:44:24;22.50;99.90
13205;DHT22;6667;52.634;9.226;2022-09-09T09:46:53;22.60;99.90
13205;DHT22;6667;52.634;9.226;2022-09-09T09:49:31;22.70;99.90
13205;DHT22;6667;52.634;9.226;2022-09-09T09:52:00;23.60;99.90
13205;DHT22;6667;52.634;9.226;2022-09-09T09:54:28;23.50;99.90
13205;DHT22;6667;52.634;9.226;2022-09-09T09:56:55;23.30;99.90
13205;DHT22;6667;52.634;9.226;2022-09-09T09:59:32;23.70;99.90
13205;DHT22;6667;52.634;9.226;2022-09-09T10:02:14;24.20;99.90
13205;DHT22;6667;52.634;9.226;2022-09-09T10:04:41;24.20;99.90
13205;DHT22;6667;52.634;9.226;2022-09-09T10:07:10;23.70;99.90
13205;DHT22;6667;52.634;9.226;2022-09-09T10:09:37;23.80;99.90
13205;DHT22;6667;52.634;9.226;2022-09-09T10:12:13;23.50;99.90
13205;DHT22;6667;52.634;9.226;2022-09-09T10:14:49;23.60;99.90
13205;DHT22;6667;52.634;9.226;2022-09-09T10:17:24;24.00;99.90
13205;DHT22;6667;52.634;9.226;2022-09-09T10:20:04;23.60;99.90
13205;DHT22;6667;52.634;9.226;2022-09-09T10:22:39;24.00;99.90
13205;DHT22;6667;52.634;9.226;2022-09-09T10:25:31;24.50;99.90
13205;DHT22;6667;52.634;9.226;2022-09-09T10:28:16;24.40;99.90
13205;DHT22;6667;52.634;9.226;2022-09-09T10:30:54;24.20;99.90
13205;DHT22;6667;52.634;9.226;2022-09-09T10:33:30;24.00;99.90
13205;DHT22;6667;52.634;9.226;2022-09-09T10:36:05;23.70;99.90
13205;DHT22;6667;52.634;9.226;2022-09-09T10:38:40;24.00;99.90
13205;DHT22;6667;52.634;9.226;2022-09-09T10:41:19;23.70;99.90
13205;DHT22;6667;52.634;9.226;2022-09-09T10:43:59;23.60;99.90
13205;DHT22;6667;52.634;9.226;2022-09-09T10:46:37;23.50;99.90
13205;DHT22;6667;52.634;9.226;2022-09-09T10:49:18;23.40;99.90
13205;DHT22;6667;52.634;9.226;2022-09-09T10:51:54;24.10;99.90
13205;DHT22;6667;52.634;9.226;2022-09-09T10:54:35;24.70;99.90
13205;DHT22;6667;52.634;9.226;2022-09-09T10:57:10;24.50;99.90
13205;DHT22;6667;52.634;9.226;2022-09-09T10:59:42;23.70;99.90
13205;DHT22;6667;52.634;9.226;2022-09-09T11:02:15;23.20;99.90
13205;DHT22;6667;52.634;9.226;2022-09-09T11:04:49;22.90;99.90
13205;DHT22;6667;52.634;9.226;2022-09-09T11:07:27;22.90;99.90
13205;DHT22;6667;52.634;9.226;2022-09-09T11:09:59;22.80;99.90
13205;DHT22;6667;52.634;9.226;2022-09-09T11:12:30;22.70;99.90
13205;DHT22;6667;52.634;9.226;2022-09-09T11:15:01;22.80;99.90
13205;DHT22;6667;52.634;9.226;2022-09-09T11:17:36;22.60;99.90
13205;DHT22;6667;52.634;9.226;2022-09-09T11:20:11;22.30;99.90
13205;DHT22;6667;52.634;9.226;2022-09-09T11:22:43;22.00;99.90
13205;DHT22;6667;52.634;9.226;2022-09-09T11:25:16;21.70;99.90
13205;DHT22;6667;52.634;9.226;2022-09-09T11:27:53;21.10;99.90
13205;DHT22;6667;52.634;9.226;2022-09-09T11:30:22;21.00;99.90
13205;DHT22;6667;52.634;9.226;2022-09-09T11:36:00;21.00;99.90
13205;DHT22;6667;52.634;9.226;2022-09-09T11:38:36;21.00;99.90
13205;DHT22;6667;52.634;9.226;2022-09-09T11:41:08;20.40;99.90
13205;DHT22;6667;52.634;9.226;2022-09-09T11:43:39;20.50;99.90
13205;DHT22;6667;52.634;9.226;2022-09-09T11:46:08;20.10;99.90
13205;DHT22;6667;52.634;9.226;2022-09-09T11:48:37;20.00;99.90
13205;DHT22;6667;52.634;9.226;2022-09-09T11:51:07;19.90;99.90
13205;DHT22;6667;52.634;9.226;2022-09-09T11:53:35;20.30;99.90
13205;DHT22;6667;52.634;9.226;2022-09-09T11:56:27;20.40;99.90
13205;DHT22;6667;52.634;9.226;2022-09-09T11:58:57;20.10;99.90
13205;DHT22;6667;52.634;9.226;2022-09-09T12:01:35;20.10;99.90
13205;DHT22;6667;52.634;9.226;2022-09-09T12:04:14;19.90;99.90
13205;DHT22;6667;52.634;9.226;2022-09-09T12:06:45;19.50;99.90
13205;DHT22;6667;52.634;9.226;2022-09-09T12:09:20;19.40;99.90
13205;DHT22;6667;52.634;9.226;2022-09-09T12:11:49;19.40;99.90
13205;DHT22;6667;52.634;9.226;2022-09-09T12:14:34;19.30;99.90
13205;DHT22;6667;52.634;9.226;2022-09-09T12:17:10;19.40;99.90
13205;DHT22;6667;52.634;9.226;2022-09-09T12:19:36;19.30;99.90
13205;DHT22;6667;52.634;9.226;2022-09-09T12:22:09;19.10;99.90
13205;DHT22;6667;52.634;9.226;2022-09-09T12:24:46;19.40;99.90
13205;DHT22;6667;52.634;9.226;2022-09-09T12:27:17;19.40;99.90
13205;DHT22;6667;52.634;9.226;2022-09-09T12:29:53;19.30;99.90
13205;DHT22;6667;52.634;9.226;2022-09-09T12:32:24;19.30;99.90
13205;DHT22;6667;52.634;9.226;2022-09-09T12:34:53;19.60;99.90
13205;DHT22;6667;52.634;9.226;2022-09-09T12:37:27;19.70;99.90
13205;DHT22;6667;52.634;9.226;2022-09-09T12:39:56;20.10;99.90
13205;DHT22;6667;52.634;9.226;2022-09-09T12:42:24;20.40;99.90
13205;DHT22;6667;52.634;9.226;2022-09-09T12:44:56;20.60;99.90
13205;DHT22;6667;52.634;9.226;2022-09-09T12:47:27;20.80;99.90
13205;DHT22;6667;52.634;9.226;2022-09-09T12:49:57;21.20;99.90
13205;DHT22;6667;52.634;9.226;2022-09-09T12:52:28;21.50;99.90
13205;DHT22;6667;52.634;9.226;2022-09-09T12:54:57;21.80;99.90
13205;DHT22;6667;52.634;9.226;2022-09-09T12:57:26;21.80;99.90
13205;DHT22;6667;52.634;9.226;2022-09-09T13:00:05;22.10;99.90
13205;DHT22;6667;52.634;9.226;2022-09-09T13:02:33;22.50;99.90
13205;DHT22;6667;52.634;9.226;2022-09-09T13:05:12;23.20;99.90
13205;DHT22;6667;52.634;9.226;2022-09-09T13:07:41;23.20;99.90
13205;DHT22;6667;52.634;9.226;2022-09-09T13:10:11;23.20;99.90
13205;DHT22;6667;52.634;9.226;2022-09-09T13:12:38;23.50;99.90
13205;DHT22;6667;52.634;9.226;2022-09-09T13:15:14;23.90;99.90
13205;DHT22;6667;52.634;9.226;2022-09-09T13:17:50;24.30;99.90
13205;DHT22;6667;52.634;9.226;2022-09-09T13:20:19;23.80;99.90
13205;DHT22;6667;52.634;9.226;2022-09-09T13:22:48;24.10;99.90
13205;DHT22;6667;52.634;9.226;2022-09-09T13:25:22;24.50;99.90
13205;DHT22;6667;52.634;9.226;2022-09-09T13:28:01;24.80;99.90
13205;DHT22;6667;52.634;9.226;2022-09-09T13:30:30;24.50;99.90
13205;DHT22;6667;52.634;9.226;2022-09-09T13:33:19;24.70;99.90
13205;DHT22;6667;52.634;9.226;2022-09-09T13:35:49;24.80;99.90
13205;DHT22;6667;52.634;9.226;2022-09-09T13:38:18;24.50;99.90
13205;DHT22;6667;52.634;9.226;2022-09-09T13:40:55;24.50;99.90
13205;DHT22;6667;52.634;9.226;2022-09-09T13:43:23;24.30;99.90
13205;DHT22;6667;52.634;9.226;2022-09-09T13:45:55;23.70;99.90
13205;DHT22;6667;52.634;9.226;2022-09-09T13:48:23;23.30;99.90
13205;DHT22;6667;52.634;9.226;2022-09-09T13:50:55;23.20;99.90
13205;DHT22;6667;52.634;9.226;2022-09-09T13:53:23;23.70;99.90
13205;DHT22;6667;52.634;9.226;2022-09-09T13:55:50;23.80;99.90
13205;DHT22;6667;52.634;9.226;2022-09-09T13:58:17;23.50;99.90
13205;DHT22;6667;52.634;9.226;2022-09-09T14:00:45;23.20;99.90
13205;DHT22;6667;52.634;9.226;2022-09-09T14:03:12;23.10;99.90
13205;DHT22;6667;52.634;9.226;2022-09-09T14:05:39;23.10;99.90
13205;DHT22;6667;52.634;9.226;2022-09-09T14:08:07;23.20;99.90
13205;DHT22;6667;52.634;9.226;2022-09-09T14:10:35;23.20;99.90
13205;DHT22;6667;52.634;9.226;2022-09-09T14:13:02;23.40;99.90
13205;DHT22;6667;52.634;9.226;2022-09-09T14:15:29;23.60;99.90
13205;DHT22;6667;52.634;9.226;2022-09-09T14:17:55;23.50;99.90
13205;DHT22;6667;52.634;9.226;2022-09-09T14:20:24;23.40;99.90
13205;DHT22;6667;52.634;9.226;2022-09-09T14:22:51;23.50;99.90
13205;DHT22;6667;52.634;9.226;2022-09-09T14:25:18;23.50;99.90
13205;DHT22;6667;52.634;9.226;2022-09-09T14:27:46;23.20;99.90
13205;DHT22;6667;52.634;9.226;2022-09-09T14:30:13;23.00;99.90
13205;DHT22;6667;52.634;9.226;2022-09-09T14:32:40;22.90;99.90
13205;DHT22;6667;52.634;9.226;2022-09-09T14:35:07;23.00;99.90
13205;DHT22;6667;52.634;9.226;2022-09-09T14:37:34;23.10;99.90
13205;DHT22;6667;52.634;9.226;2022-09-09T14:40:01;23.00;99.90
13205;DHT22;6667;52.634;9.226;2022-09-09T14:42:27;23.10;99.90
13205;DHT22;6667;52.634;9.226;2022-09-09T14:44:56;23.30;99.90
13205;DHT22;6667;52.634;9.226;2022-09-09T14:47:23;23.40;99.90
13205;DHT22;6667;52.634;9.226;2022-09-09T14:49:51;23.20;99.90
13205;DHT22;6667;52.634;9.226;2022-09-09T14:52:18;23.20;99.90
13205;DHT22;6667;52.634;9.226;2022-09-09T14:54:45;23.20;99.90
13205;DHT22;6667;52.634;9.226;2022-09-09T14:57:12;23.20;99.90
13205;DHT22;6667;52.634;9.226;2022-09-09T14:59:39;23.30;99.90
13205;DHT22;6667;52.634;9.226;2022-09-09T15:02:08;23.10;99.90
13205;DHT22;6667;52.634;9.226;2022-09-09T15:04:35;23.00;99.90
13205;DHT22;6667;52.634;9.226;2022-09-09T15:07:01;22.90;99.90
13205;DHT22;6667;52.634;9.226;2022-09-09T15:09:28;22.90;99.90
13205;DHT22;6667;52.634;9.226;2022-09-09T15:11:55;23.10;99.90
13205;DHT22;6667;52.634;9.226;2022-09-09T15:14:22;22.90;99.90
13205;DHT22;6667;52.634;9.226;2022-09-09T15:16:48;22.80;99.90
13205;DHT22;6667;52.634;9.226;2022-09-09T15:19:16;22.90;99.90
13205;DHT22;6667;52.634;9.226;2022-09-09T15:21:43;23.00;99.90
13205;DHT22;6667;52.634;9.226;2022-09-09T15:24:10;22.90;99.90
13205;DHT22;6667;52.634;9.226;2022-09-09T15:26:37;23.00;99.90
13205;DHT22;6667;52.634;9.226;2022-09-09T15:29:05;22.90;99.90
13205;DHT22;6667;52.634;9.226;2022-09-09T15:31:32;22.80;99.90
13205;DHT22;6667;52.634;9.226;2022-09-09T15:34:01;22.70;99.90
13205;DHT22;6667;52.634;9.226;2022-09-09T15:36:31;22.60;99.90
13205;DHT22;6667;52.634;9.226;2022-09-09T15:38:59;22.80;99.90
13205;DHT22;6667;52.634;9.226;2022-09-09T15:41:27;22.90;99.90
13205;DHT22;6667;52.634;9.226;2022-09-09T15:43:54;23.00;99.90
13205;DHT22;6667;52.634;9.226;2022-09-09T15:46:25;22.70;99.90
13205;DHT22;6667;52.634;9.226;2022-09-09T15:48:53;22.70;99.90
13205;DHT22;6667;52.634;9.226;2022-09-09T15:51:21;22.30;99.90
13205;DHT22;6667;52.634;9.226;2022-09-09T15:53:53;22.00;99.90
13205;DHT22;6667;52.634;9.226;2022-09-09T15:56:20;21.80;99.90
13205;DHT22;6667;52.634;9.226;2022-09-09T15:58:47;21.80;99.90
13205;DHT22;6667;52.634;9.226;2022-09-09T16:01:14;22.00;99.90
13205;DHT22;6667;52.634;9.226;2022-09-09T16:03:42;22.10;99.90
13205;DHT22;6667;52.634;9.226;2022-09-09T16:06:11;22.00;99.90
13205;DHT22;6667;52.634;9.226;2022-09-09T16:08:40;22.00;99.90
13205;DHT22;6667;52.634;9.226;2022-09-09T16:11:11;21.90;99.90
13205;DHT22;6667;52.634;9.226;2022-09-09T16:13:40;21.70;99.90
13205;DHT22;6667;52.634;9.226;2022-09-09T16:16:09;21.60;99.90
13205;DHT22;6667;52.634;9.226;2022-09-09T16:18:38;21.40;99.90
13205;DHT22;6667;52.634;9.226;2022-09-09T16:21:05;21.30;99.90
13205;DHT22;6667;52.634;9.226;2022-09-09T16:23:33;21.30;99.90
13205;DHT22;6667;52.634;9.226;2022-09-09T16:26:01;21.30;99.90
13205;DHT22;6667;52.634;9.226;2022-09-09T16:28:29;21.20;99.90
13205;DHT22;6667;52.634;9.226;2022-09-09T16:30:55;21.30;99.90
13205;DHT22;6667;52.634;9.226;2022-09-09T16:33:24;21.30;99.90
13205;DHT22;6667;52.634;9.226;2022-09-09T16:35:51;21.20;99.90
13205;DHT22;6667;52.634;9.226;2022-09-09T16:38:17;21.20;99.90
13205;DHT22;6667;52.634;9.226;2022-09-09T16:40:44;21.20;99.90
13205;DHT22;6667;52.634;9.226;2022-09-09T16:43:10;21.10;99.90
13205;DHT22;6667;52.634;9.226;2022-09-09T16:45:42;21.00;99.90
13205;DHT22;6667;52.634;9.226;2022-09-09T16:48:10;21.00;99.90
13205;DHT22;6667;52.634;9.226;2022-09-09T16:50:37;20.90;99.90
13205;DHT22;6667;52.634;9.226;2022-09-09T16:53:04;20.80;99.90
13205;DHT22;6667;52.634;9.226;2022-09-09T16:55:37;20.80;99.90
13205;DHT22;6667;52.634;9.226;2022-09-09T16:58:05;20.70;99.90
13205;DHT22;6667;52.634;9.226;2022-09-09T17:00:31;20.80;99.90
13205;DHT22;6667;52.634;9.226;2022-09-09T17:03:00;20.80;99.90
13205;DHT22;6667;52.634;9.226;2022-09-09T17:05:27;20.70;99.90
13205;DHT22;6667;52.634;9.226;2022-09-09T17:07:55;20.70;99.90
13205;DHT22;6667;52.634;9.226;2022-09-09T17:10:23;20.50;99.90
13205;DHT22;6667;52.634;9.226;2022-09-09T17:12:49;20.50;99.90
13205;DHT22;6667;52.634;9.226;2022-09-09T17:15:16;20.40;99.90
13205;DHT22;6667;52.634;9.226;2022-09-09T17:17:44;20.40;99.90
13205;DHT22;6667;52.634;9.226;2022-09-09T17:20:15;20.40;99.90
13205;DHT22;6667;52.634;9.226;2022-09-09T17:22:42;20.30;99.90
13205;DHT22;6667;52.634;9.226;2022-09-09T17:25:09;20.30;99.90
13205;DHT22;6667;52.634;9.226;2022-09-09T17:27:35;20.30;99.90
13205;DHT22;6667;52.634;9.226;2022-09-09T17:30:03;20.20;99.90
13205;DHT22;6667;52.634;9.226;2022-09-09T17:32:29;20.20;99.90
13205;DHT22;6667;52.634;9.226;2022-09-09T17:34:57;20.30;99.90
13205;DHT22;6667;52.634;9.226;2022-09-09T17:37:25;20.20;99.90
13205;DHT22;6667;52.634;9.226;2022-09-09T17:39:51;20.20;99.90
13205;DHT22;6667;52.634;9.226;2022-09-09T17:42:18;20.20;99.90
13205;DHT22;6667;52.634;9.226;2022-09-09T17:44:44;20.10;99.90
13205;DHT22;6667;52.634;9.226;2022-09-09T17:47:11;20.10;99.90
13205;DHT22;6667;52.634;9.226;2022-09-09T17:49:38;20.00;99.90
13205;DHT22;6667;52.634;9.226;2022-09-09T17:52:05;19.90;99.90
13205;DHT22;6667;52.634;9.226;2022-09-09T17:54:32;19.90;99.90
13205;DHT22;6667;52.634;9.226;2022-09-09T17:56:59;19.80;99.90
13205;DHT22;6667;52.634;9.226;2022-09-09T17:59:26;19.70;99.90
13205;DHT22;6667;52.634;9.226;2022-09-09T18:01:52;19.70;99.90
13205;DHT22;6667;52.634;9.226;2022-09-09T18:04:19;19.70;99.90
13205;DHT22;6667;52.634;9.226;2022-09-09T18:06:47;19.60;99.90
13205;DHT22;6667;52.634;9.226;2022-09-09T18:09:16;19.50;99.90
13205;DHT22;6667;52.634;9.226;2022-09-09T18:11:46;19.50;99.90
13205;DHT22;6667;52.634;9.226;2022-09-09T18:14:15;19.50;99.90
13205;DHT22;6667;52.634;9.226;2022-09-09T18:16:43;19.50;99.90
13205;DHT22;6667;52.634;9.226;2022-09-09T18:19:12;19.50;99.90
13205;DHT22;6667;52.634;9.226;2022-09-09T18:21:41;19.40;99.90
13205;DHT22;6667;52.634;9.226;2022-09-09T18:24:10;19.30;99.90
13205;DHT22;6667;52.634;9.226;2022-09-09T18:26:38;19.20;99.90
13205;DHT22;6667;52.634;9.226;2022-09-09T18:29:08;19.10;99.90
13205;DHT22;6667;52.634;9.226;2022-09-09T18:31:35;19.20;99.90
13205;DHT22;6667;52.634;9.226;2022-09-09T18:34:04;19.10;99.90
13205;DHT22;6667;52.634;9.226;2022-09-09T18:36:33;19.00;99.90
13205;DHT22;6667;52.634;9.226;2022-09-09T18:39:01;19.00;99.90
13205;DHT22;6667;52.634;9.226;2022-09-09T18:41:30;19.00;99.90
13205;DHT22;6667;52.634;9.226;2022-09-09T18:44:00;18.80;99.90
13205;DHT22;6667;52.634;9.226;2022-09-09T18:46:29;18.60;99.90
13205;DHT22;6667;52.634;9.226;2022-09-09T18:48:56;18.40;99.90
13205;DHT22;6667;52.634;9.226;2022-09-09T18:51:26;18.30;99.90
13205;DHT22;6667;52.634;9.226;2022-09-09T18:53:55;18.10;99.90
13205;DHT22;6667;52.634;9.226;2022-09-09T18:56:22;17.80;99.90
13205;DHT22;6667;52.634;9.226;2022-09-09T18:58:51;17.60;99.90
13205;DHT22;6667;52.634;9.226;2022-09-09T19:01:18;17.40;99.90
13205;DHT22;6667;52.634;9.226;2022-09-09T19:03:46;17.30;99.90
13205;DHT22;6667;52.634;9.226;2022-09-09T19:06:17;17.30;99.90
13205;DHT22;6667;52.634;9.226;2022-09-09T19:08:45;17.30;99.90
13205;DHT22;6667;52.634;9.226;2022-09-09T19:11:15;17.30;99.90
13205;DHT22;6667;52.634;9.226;2022-09-09T19:13:43;17.30;99.90
13205;DHT22;6667;52.634;9.226;2022-09-09T19:16:12;17.40;99.90
13205;DHT22;6667;52.634;9.226;2022-09-09T19:18:39;17.20;99.90
13205;DHT22;6667;52.634;9.226;2022-09-09T19:21:12;17.10;99.90
13205;DHT22;6667;52.634;9.226;2022-09-09T19:23:39;17.10;99.90
13205;DHT22;6667;52.634;9.226;2022-09-09T19:26:07;17.20;99.90
13205;DHT22;6667;52.634;9.226;2022-09-09T19:28:36;17.30;99.90
13205;DHT22;6667;52.634;9.226;2022-09-09T19:31:05;17.40;99.90
13205;DHT22;6667;52.634;9.226;2022-09-09T19:33:34;17.40;99.90
13205;DHT22;6667;52.634;9.226;2022-09-09T19:36:03;17.40;99.90
13205;DHT22;6667;52.634;9.226;2022-09-09T19:38:32;17.40;99.90
13205;DHT22;6667;52.634;9.226;2022-09-09T19:41:02;17.40;99.90
13205;DHT22;6667;52.634;9.226;2022-09-09T19:43:30;17.30;99.90
13205;DHT22;6667;52.634;9.226;2022-09-09T19:45:56;17.10;99.90
13205;DHT22;6667;52.634;9.226;2022-09-09T19:48:24;17.10;99.90
13205;DHT22;6667;52.634;9.226;2022-09-09T19:50:51;17.10;99.90
13205;DHT22;6667;52.634;9.226;2022-09-09T19:53:18;17.10;99.90
13205;DHT22;6667;52.634;9.226;2022-09-09T19:55:48;17.00;99.90
13205;DHT22;6667;52.634;9.226;2022-09-09T19:58:15;17.00;99.90
13205;DHT22;6667;52.634;9.226;2022-09-09T20:00:42;17.00;99.90
13205;DHT22;6667;52.634;9.226;2022-09-09T20:03:09;17.00;99.90
13205;DHT22;6667;52.634;9.226;2022-09-09T20:05:36;17.00;99.90
13205;DHT22;6667;52.634;9.226;2022-09-09T20:08:02;16.90;99.90
13205;DHT22;6667;52.634;9.226;2022-09-09T20:10:29;16.80;99.90
13205;DHT22;6667;52.634;9.226;2022-09-09T20:12:57;16.80;99.90
13205;DHT22;6667;52.634;9.226;2022-09-09T20:15:25;16.80;99.90
13205;DHT22;6667;52.634;9.226;2022-09-09T20:17:51;16.70;99.90
13205;DHT22;6667;52.634;9.226;2022-09-09T20:20:18;16.50;99.90
13205;DHT22;6667;52.634;9.226;2022-09-09T20:22:45;16.40;99.90
13205;DHT22;6667;52.634;9.226;2022-09-09T20:25:12;16.10;99.90
13205;DHT22;6667;52.634;9.226;2022-09-09T20:27:39;16.00;99.90
13205;DHT22;6667;52.634;9.226;2022-09-09T20:30:09;15.80;99.90